Time;durP1;ratioP1;P1;durP2;ratioP2;P2;SDS_P1;SDS_P2;PMS_P1;PMS_P2;Temp;Humidity;BMP_temperature;BMP_pressure;BME280_temperature;BME280_humidity;BME280_pressure;Samples;Min_cycle;Max_cycle;Signal;HPM_P1;HPM_P2
2021/12/20 00:01:40;;;;;;;35.53;20.40;;;5.10;99.90;;;;;;5074215;28;20590;-69
2021/12/20 00:04:06;;;;;;;32.33;19.83;;;5.10;99.90;;;;;;5074126;28;20309;-69
2021/12/20 00:06:33;;;;;;;34.08;19.92;;;5.10;99.90;;;;;;5074056;28;20227;-69
2021/12/20 00:09:02;;;;;;;33.50;19.70;;;5.10;99.90;;;;;;5073601;28;20299;-69
2021/12/20 00:11:28;;;;;;;26.48;18.10;;;5.10;99.90;;;;;;5073923;28;20209;-69
2021/12/20 00:13:55;;;;;;;30.70;18.73;;;5.30;99.90;;;;;;5073953;28;20233;-69
2021/12/20 00:16:22;;;;;;;32.67;19.88;;;5.30;99.90;;;;;;5073899;28;20300;-69
2021/12/20 00:18:49;;;;;;;28.73;17.65;;;5.30;99.90;;;;;;5073669;28;20568;-69
2021/12/20 00:21:16;;;;;;;26.73;18.00;;;5.40;99.90;;;;;;5074117;28;20198;-69
2021/12/20 00:23:43;;;;;;;33.65;18.45;;;5.50;99.90;;;;;;5073768;28;20314;-69
2021/12/20 00:26:11;;;;;;;32.30;19.17;;;5.50;99.90;;;;;;5073563;28;20312;-69
2021/12/20 00:28:39;;;;;;;33.42;19.42;;;5.60;99.90;;;;;;5073809;28;20285;-70
2021/12/20 00:31:06;;;;;;;30.67;18.33;;;5.50;99.90;;;;;;5073942;28;20202;-69
2021/12/20 00:33:34;;;;;;;31.80;17.65;;;5.50;99.90;;;;;;5073959;28;20226;-69
2021/12/20 00:36:01;;;;;;;35.30;19.00;;;5.60;99.90;;;;;;5073642;28;20205;-70
2021/12/20 00:41:14;;;;;;;31.10;19.25;;;5.40;99.90;;;;;;5073706;28;20202;-69
2021/12/20 00:43:41;;;;;;;30.35;18.40;;;5.50;99.90;;;;;;5073520;28;20313;-69
2021/12/20 00:46:08;;;;;;;32.45;19.65;;;5.50;99.90;;;;;;5073042;28;20229;-69
2021/12/20 00:48:35;;;;;;;32.90;19.33;;;5.50;99.90;;;;;;5073394;28;20302;-69
2021/12/20 00:51:02;;;;;;;29.90;19.15;;;5.40;99.90;;;;;;5073317;28;20719;-69
2021/12/20 00:53:29;;;;;;;29.58;17.95;;;5.50;99.90;;;;;;5073523;28;20249;-70
2021/12/20 00:55:56;;;;;;;29.63;19.15;;;5.50;99.90;;;;;;5074438;28;20205;-69
2021/12/20 00:58:24;;;;;;;28.67;18.00;;;5.50;99.90;;;;;;5077769;28;20667;-69
2021/12/20 01:00:52;;;;;;;31.98;18.77;;;5.60;99.90;;;;;;5077702;28;20205;-69
2021/12/20 01:03:21;;;;;;;33.45;19.08;;;5.60;99.90;;;;;;5077280;28;20224;-69
2021/12/20 01:05:48;;;;;;;30.73;18.08;;;5.40;99.90;;;;;;5077086;28;20222;-69
2021/12/20 01:08:16;;;;;;;25.50;16.60;;;5.30;99.90;;;;;;5077399;28;20302;-69
2021/12/20 01:10:46;;;;;;;26.80;16.98;;;5.40;99.90;;;;;;5077614;28;20210;-69
2021/12/20 01:13:16;;;;;;;27.30;16.48;;;5.50;99.90;;;;;;5077599;28;20234;-69
2021/12/20 01:15:48;;;;;;;31.15;17.90;;;5.60;99.90;;;;;;5076821;28;20213;-69
2021/12/20 01:18:16;;;;;;;27.88;17.42;;;5.70;99.90;;;;;;5077351;28;20534;-69
2021/12/20 01:20:43;;;;;;;25.73;16.45;;;5.80;99.90;;;;;;5077337;28;20207;-69
2021/12/20 01:23:12;;;;;;;26.55;16.48;;;5.80;99.90;;;;;;5077287;28;20202;-69
2021/12/20 01:25:39;;;;;;;28.33;16.30;;;5.80;99.90;;;;;;5077466;28;20234;-69
2021/12/20 01:28:06;;;;;;;28.58;16.90;;;5.90;99.90;;;;;;5077409;28;20205;-69
2021/12/20 01:30:35;;;;;;;27.17;16.27;;;5.70;99.90;;;;;;5077030;28;20209;-69
2021/12/20 01:33:07;;;;;;;33.13;18.50;;;5.50;99.90;;;;;;5076773;28;20289;-69
2021/12/20 01:35:34;;;;;;;34.78;18.40;;;5.30;99.90;;;;;;5076756;28;20262;-69
2021/12/20 01:38:01;;;;;;;37.00;19.95;;;5.20;99.90;;;;;;5077128;28;20209;-69
2021/12/20 01:40:29;;;;;;;31.85;19.15;;;5.10;99.90;;;;;;5076285;28;20225;-69
2021/12/20 01:42:58;;;;;;;32.58;18.38;;;5.00;99.90;;;;;;5076422;28;20649;-69
2021/12/20 01:45:26;;;;;;;29.33;17.10;;;5.20;99.90;;;;;;5076311;28;20222;-69
2021/12/20 01:48:02;;;;;;;30.98;17.25;;;5.20;99.90;;;;;;5076602;28;20209;-69
2021/12/20 01:51:00;;;;;;;30.88;18.35;;;5.20;99.90;;;;;;5076766;28;20232;-70
2021/12/20 01:53:27;;;;;;;28.23;18.02;;;5.40;99.90;;;;;;5076154;28;20313;-69
2021/12/20 01:55:56;;;;;;;31.38;17.63;;;5.50;99.90;;;;;;5076174;28;20230;-69
2021/12/20 01:58:24;;;;;;;26.63;15.85;;;5.50;99.90;;;;;;5076468;28;20212;-69
2021/12/20 02:03:56;;;;;;;29.17;17.63;;;5.60;99.90;;;;;;5014341;28;20221;-69
2021/12/20 02:06:30;;;;;;;28.95;18.10;;;5.40;99.90;;;;;;5014248;28;20703;-69
2021/12/20 02:08:58;;;;;;;29.05;16.65;;;5.40;99.90;;;;;;5045974;28;20209;-69
2021/12/20 02:11:25;;;;;;;26.58;16.38;;;5.50;99.90;;;;;;5076484;28;20199;-69
2021/12/20 02:13:52;;;;;;;25.77;15.05;;;5.50;99.90;;;;;;5076367;28;20234;-69
2021/12/20 02:16:20;;;;;;;22.80;14.57;;;5.70;99.90;;;;;;5075697;28;20671;-69
2021/12/20 02:18:48;;;;;;;24.95;16.30;;;5.70;99.90;;;;;;5076182;28;20237;-69
2021/12/20 02:21:16;;;;;;;26.23;14.65;;;5.80;99.90;;;;;;5076176;28;20607;-69
2021/12/20 02:23:43;;;;;;;25.38;15.02;;;5.70;99.90;;;;;;5075770;28;20229;-69
2021/12/20 02:26:12;;;;;;;25.10;15.77;;;5.40;99.90;;;;;;5075692;28;20223;-69
2021/12/20 02:28:43;;;;;;;27.67;15.68;;;5.40;99.90;;;;;;5075544;28;20696;-69
2021/12/20 02:37:14;;;;;;;28.77;17.55;;;5.20;99.90;;;;;;5075980;28;20683;-69
2021/12/20 02:39:41;;;;;;;27.30;16.85;;;5.20;99.90;;;;;;5075453;28;20210;-69
2021/12/20 02:42:10;;;;;;;31.13;17.80;;;5.20;99.90;;;;;;5075829;28;20209;-69
2021/12/20 02:44:37;;;;;;;27.02;17.08;;;5.00;99.90;;;;;;5075604;28;20222;-69
2021/12/20 02:47:08;;;;;;;28.88;17.50;;;4.90;99.90;;;;;;5075761;28;20317;-69
2021/12/20 02:49:36;;;;;;;26.02;17.55;;;4.80;99.90;;;;;;5075878;28;20260;-69
2021/12/20 02:52:07;;;;;;;29.90;17.48;;;4.80;99.90;;;;;;5075520;28;20224;-69
2021/12/20 02:54:35;;;;;;;31.45;17.80;;;4.80;99.90;;;;;;5075482;28;20237;-69
2021/12/20 02:57:03;;;;;;;28.42;16.40;;;4.70;99.90;;;;;;5075506;28;20210;-69
2021/12/20 02:59:30;;;;;;;29.35;17.02;;;4.70;99.90;;;;;;5075646;28;20207;-69
2021/12/20 03:02:00;;;;;;;31.75;17.42;;;4.70;99.90;;;;;;5075168;28;20298;-69
2021/12/20 03:04:27;;;;;;;26.67;15.32;;;4.70;99.90;;;;;;5074598;28;20226;-70
2021/12/20 03:06:56;;;;;;;29.77;16.77;;;4.90;99.90;;;;;;5074979;28;20313;-69
2021/12/20 03:09:30;;;;;;;26.88;16.90;;;4.90;99.90;;;;;;5075357;28;20209;-69
2021/12/20 03:11:59;;;;;;;36.95;19.08;;;4.90;99.90;;;;;;5075467;28;20213;-69
2021/12/20 03:14:30;;;;;;;28.85;16.83;;;4.90;99.90;;;;;;5074581;28;20223;-69
2021/12/20 03:16:58;;;;;;;25.95;16.05;;;4.80;99.90;;;;;;5075075;28;20561;-69
2021/12/20 03:19:25;;;;;;;28.23;15.10;;;4.80;99.90;;;;;;5074044;28;20203;-69
2021/12/20 03:21:52;;;;;;;27.08;17.17;;;4.70;99.90;;;;;;5075002;28;20649;-69
2021/12/20 03:24:19;;;;;;;30.75;16.25;;;4.80;99.90;;;;;;5075098;28;20218;-69
2021/12/20 03:26:47;;;;;;;29.70;17.83;;;4.70;99.90;;;;;;5074816;28;20222;-69
2021/12/20 03:29:14;;;;;;;31.05;17.55;;;4.70;99.90;;;;;;5074471;28;20637;-69
2021/12/20 03:31:41;;;;;;;33.78;17.80;;;4.60;99.90;;;;;;5074600;28;20213;-69
2021/12/20 03:34:09;;;;;;;31.85;17.75;;;4.50;99.90;;;;;;5074430;28;20218;-69
2021/12/20 03:36:37;;;;;;;33.95;17.40;;;4.50;99.90;;;;;;5074555;28;20645;-69
2021/12/20 03:39:04;;;;;;;29.25;18.33;;;4.50;99.90;;;;;;5074610;28;20218;-69
2021/12/20 03:41:31;;;;;;;30.70;17.52;;;4.70;99.90;;;;;;5074182;28;20202;-69
2021/12/20 03:44:00;;;;;;;31.20;18.20;;;4.80;99.90;;;;;;5074540;28;20225;-69
2021/12/20 03:46:27;;;;;;;33.35;19.27;;;4.90;99.90;;;;;;5074255;28;20677;-69
2021/12/20 03:48:54;;;;;;;28.48;17.20;;;5.00;99.90;;;;;;5074537;28;20241;-69
2021/12/20 03:51:21;;;;;;;29.30;17.52;;;5.10;99.90;;;;;;5074533;28;20213;-69
2021/12/20 03:53:48;;;;;;;28.90;16.95;;;5.20;99.90;;;;;;5074475;28;20313;-69
2021/12/20 03:56:15;;;;;;;27.50;18.08;;;5.20;99.90;;;;;;5073980;28;20201;-69
2021/12/20 03:58:42;;;;;;;31.45;17.70;;;5.30;99.90;;;;;;5074235;28;20199;-69
2021/12/20 04:01:13;;;;;;;32.38;17.40;;;5.20;99.90;;;;;;5074240;28;20619;-69
2021/12/20 04:03:41;;;;;;;26.13;16.13;;;5.30;99.90;;;;;;5074074;28;20676;-69
2021/12/20 04:06:11;;;;;;;28.08;16.13;;;5.30;99.90;;;;;;5073535;28;20219;-69
2021/12/20 04:08:39;;;;;;;25.67;15.48;;;5.40;99.90;;;;;;5073753;28;20203;-69
2021/12/20 04:11:06;;;;;;;30.90;17.63;;;5.40;99.90;;;;;;5074006;28;20209;-69
2021/12/20 04:13:33;;;;;;;29.98;18.00;;;5.50;99.90;;;;;;5074034;28;20580;-69
2021/12/20 04:16:01;;;;;;;29.75;17.23;;;5.50;99.90;;;;;;5073952;28;20202;-69
2021/12/20 04:18:32;;;;;;;27.75;16.15;;;5.50;99.90;;;;;;5074236;28;20205;-69
2021/12/20 04:20:59;;;;;;;26.23;16.27;;;5.50;99.90;;;;;;5074184;28;20671;-69
2021/12/20 04:23:26;;;;;;;27.40;16.92;;;5.50;99.90;;;;;;5073414;28;20735;-69
2021/12/20 04:25:52;;;;;;;30.45;18.02;;;5.40;99.90;;;;;;5073592;28;20213;-69
2021/12/20 04:28:19;;;;;;;32.72;17.85;;;5.40;99.90;;;;;;5073777;28;20198;-69
2021/12/20 04:30:46;;;;;;;29.65;16.83;;;5.40;99.90;;;;;;5073702;28;20544;-70
2021/12/20 04:33:13;;;;;;;30.95;17.42;;;5.50;99.90;;;;;;5073863;28;20209;-69
2021/12/20 04:35:42;;;;;;;27.65;17.65;;;5.50;99.90;;;;;;5073162;28;20827;-69
2021/12/20 04:38:10;;;;;;;27.35;16.70;;;5.60;99.90;;;;;;5073715;28;20552;-69
2021/12/20 04:40:36;;;;;;;27.23;16.75;;;5.70;99.90;;;;;;5073526;28;20211;-69
2021/12/20 04:43:05;;;;;;;30.73;18.27;;;5.60;99.90;;;;;;5073776;28;20202;-69
2021/12/20 04:45:33;;;;;;;33.17;17.67;;;5.50;99.90;;;;;;5073556;28;20199;-70
2021/12/20 04:48:00;;;;;;;31.42;17.45;;;5.30;99.90;;;;;;5073768;28;20233;-69
2021/12/20 04:50:28;;;;;;;27.15;16.30;;;5.30;99.90;;;;;;5073515;28;20307;-69
2021/12/20 04:52:57;;;;;;;30.33;17.73;;;5.40;99.90;;;;;;5073409;28;20234;-69
2021/12/20 04:55:25;;;;;;;28.52;17.52;;;5.50;99.90;;;;;;5073227;28;20234;-69
2021/12/20 04:57:53;;;;;;;34.45;17.63;;;5.40;99.90;;;;;;5073695;28;20564;-69
2021/12/20 05:00:21;;;;;;;34.05;18.23;;;5.20;99.90;;;;;;5073690;28;20217;-69
2021/12/20 05:02:48;;;;;;;38.03;18.67;;;5.10;99.90;;;;;;5073353;28;20207;-69
2021/12/20 05:05:15;;;;;;;38.92;19.20;;;4.90;99.90;;;;;;5073862;28;20237;-69
2021/12/20 05:07:44;;;;;;;34.80;18.67;;;4.80;99.90;;;;;;5073327;28;20230;-69
2021/12/20 05:10:24;;;;;;;32.28;18.45;;;4.90;99.90;;;;;;5073623;28;20202;-69
2021/12/20 05:12:51;;;;;;;29.83;16.38;;;5.00;99.90;;;;;;5073691;28;20260;-69
2021/12/20 05:15:18;;;;;;;27.95;17.17;;;5.10;99.90;;;;;;5072756;28;20229;-69
2021/12/20 05:17:45;;;;;;;29.67;16.85;;;5.20;99.90;;;;;;5073409;28;20248;-70
2021/12/20 05:20:12;;;;;;;30.25;16.63;;;5.30;99.90;;;;;;5073463;28;20203;-69
2021/12/20 05:22:39;;;;;;;31.95;18.50;;;5.40;99.90;;;;;;5073530;28;20206;-69
2021/12/20 05:25:06;;;;;;;33.70;17.90;;;5.30;99.90;;;;;;5073321;28;20680;-69
2021/12/20 05:27:35;;;;;;;33.88;17.52;;;5.20;99.90;;;;;;5073499;28;20225;-69
2021/12/20 05:30:03;;;;;;;30.33;16.83;;;5.20;99.90;;;;;;5073213;28;20202;-69
2021/12/20 05:32:30;;;;;;;28.23;16.42;;;5.30;99.90;;;;;;5073216;28;20615;-69
2021/12/20 05:34:57;;;;;;;31.42;17.85;;;5.30;99.90;;;;;;5073031;28;20223;-69
2021/12/20 05:37:24;;;;;;;34.05;18.23;;;5.30;99.90;;;;;;5073402;28;20198;-69
2021/12/20 05:39:51;;;;;;;32.30;18.50;;;5.20;99.90;;;;;;5072823;28;20754;-69
2021/12/20 05:42:18;;;;;;;32.72;18.17;;;5.20;99.90;;;;;;5073526;28;20297;-69
2021/12/20 05:44:46;;;;;;;35.40;19.73;;;5.00;99.90;;;;;;5076533;28;20333;-69
2021/12/20 05:47:13;;;;;;;34.10;18.45;;;4.90;99.90;;;;;;5076616;28;20752;-69
2021/12/20 05:49:39;;;;;;;33.13;18.80;;;4.90;99.90;;;;;;5076937;28;20242;-69
2021/12/20 05:52:06;;;;;;;34.78;18.92;;;4.90;99.90;;;;;;5076962;28;20590;-69
2021/12/20 05:54:33;;;;;;;32.25;19.20;;;4.80;99.90;;;;;;5076190;28;20306;-69
2021/12/20 05:57:00;;;;;;;33.97;19.52;;;4.80;99.90;;;;;;5076473;28;20286;-69
2021/12/20 05:59:27;;;;;;;36.15;19.90;;;4.90;99.90;;;;;;5076608;28;20233;-69
2021/12/20 06:01:55;;;;;;;36.75;19.08;;;4.80;99.90;;;;;;5076450;28;20720;-69
2021/12/20 06:04:22;;;;;;;34.58;18.27;;;4.70;99.90;;;;;;5075803;28;20317;-69
2021/12/20 06:06:49;;;;;;;31.38;17.70;;;4.90;99.90;;;;;;5076639;28;20269;-69
2021/12/20 06:09:16;;;;;;;30.13;17.30;;;5.00;99.90;;;;;;5076669;28;20293;-69
2021/12/20 06:11:42;;;;;;;31.77;18.25;;;5.00;99.90;;;;;;5076245;28;20199;-69
2021/12/20 06:14:09;;;;;;;35.78;18.60;;;5.10;99.90;;;;;;5076180;28;20318;-69
2021/12/20 06:16:36;;;;;;;31.83;17.67;;;5.10;99.90;;;;;;5075959;28;20206;-69
2021/12/20 06:19:05;;;;;;;30.60;18.17;;;5.20;99.90;;;;;;5076363;28;20754;-69
2021/12/20 06:21:32;;;;;;;33.65;17.42;;;5.20;99.90;;;;;;5076389;28;20667;-69
2021/12/20 06:23:59;;;;;;;29.88;16.40;;;5.10;99.90;;;;;;5075994;28;20223;-69
2021/12/20 06:26:25;;;;;;;31.08;18.17;;;5.20;99.90;;;;;;5075597;28;20211;-69
2021/12/20 06:28:53;;;;;;;33.40;18.52;;;5.30;99.90;;;;;;5075938;28;20657;-69
2021/12/20 06:31:20;;;;;;;33.30;18.52;;;5.30;99.90;;;;;;5076192;28;20209;-69
2021/12/20 06:33:47;;;;;;;27.42;17.60;;;5.40;99.90;;;;;;5075885;28;20226;-69
2021/12/20 06:36:15;;;;;;;30.85;18.23;;;5.40;99.90;;;;;;5075396;28;20203;-69
2021/12/20 06:38:46;;;;;;;32.78;18.45;;;5.40;99.90;;;;;;5075310;28;20199;-70
2021/12/20 06:41:13;;;;;;;37.75;19.48;;;5.20;99.90;;;;;;5075643;28;20203;-69
2021/12/20 06:43:41;;;;;;;34.65;20.33;;;5.10;99.90;;;;;;5075827;28;20227;-69
2021/12/20 06:46:07;;;;;;;36.60;18.10;;;4.90;99.90;;;;;;5075644;28;20202;-69
2021/12/20 06:48:34;;;;;;;30.13;16.67;;;4.80;99.90;;;;;;5075988;28;20229;-69
2021/12/20 06:51:01;;;;;;;34.35;18.50;;;4.90;99.90;;;;;;5076025;28;20297;-69
2021/12/20 06:53:29;;;;;;;31.50;16.35;;;5.00;99.90;;;;;;5075231;28;20219;-70
2021/12/20 06:55:56;;;;;;;31.33;16.52;;;4.90;99.90;;;;;;5075483;28;20320;-69
2021/12/20 06:58:24;;;;;;;32.63;16.63;;;4.90;99.90;;;;;;5075633;28;20202;-69
2021/12/20 07:00:52;;;;;;;27.63;16.90;;;5.00;99.90;;;;;;5075552;28;20202;-70
2021/12/20 07:03:19;;;;;;;30.58;16.58;;;5.20;99.90;;;;;;5075582;28;20229;-69
2021/12/20 07:05:46;;;;;;;29.38;16.48;;;5.20;99.90;;;;;;5075101;28;20202;-70
2021/12/20 07:08:13;;;;;;;31.02;17.08;;;5.20;99.90;;;;;;5075175;28;20222;-69
2021/12/20 07:10:42;;;;;;;30.50;18.08;;;5.10;99.90;;;;;;5075319;28;20214;-69
2021/12/20 07:13:10;;;;;;;33.72;17.85;;;5.10;99.90;;;;;;5075160;28;20209;-69
2021/12/20 07:15:37;;;;;;;30.35;17.75;;;5.00;99.90;;;;;;5075258;28;20296;-69
2021/12/20 07:18:05;;;;;;;29.15;17.38;;;5.00;99.90;;;;;;5075453;28;20290;-69
2021/12/20 07:20:32;;;;;;;31.35;17.33;;;5.00;99.90;;;;;;5074962;28;20203;-69
2021/12/20 07:22:59;;;;;;;31.15;16.90;;;4.90;99.90;;;;;;5074966;28;20616;-70
2021/12/20 07:25:26;;;;;;;24.33;15.27;;;5.00;99.90;;;;;;5074748;28;20205;-69
2021/12/20 07:27:54;;;;;;;24.63;16.58;;;5.10;99.90;;;;;;5075272;28;20310;-69
2021/12/20 07:30:21;;;;;;;28.73;17.35;;;5.00;99.90;;;;;;5075108;28;20214;-70
2021/12/20 07:32:49;;;;;;;32.08;18.08;;;5.00;99.90;;;;;;5075431;28;20628;-69
2021/12/20 07:35:16;;;;;;;28.98;16.88;;;5.10;99.90;;;;;;5074540;28;20284;-69
2021/12/20 07:37:44;;;;;;;27.80;16.80;;;5.30;99.90;;;;;;5074754;28;20203;-70
2021/12/20 07:40:12;;;;;;;26.30;16.52;;;5.40;99.90;;;;;;5074726;28;20242;-70
2021/12/20 07:42:39;;;;;;;28.95;16.52;;;5.50;99.90;;;;;;5074797;28;20206;-69
2021/12/20 07:45:09;;;;;;;28.75;17.10;;;5.60;99.90;;;;;;5073984;28;20310;-70
2021/12/20 07:47:36;;;;;;;31.42;18.85;;;5.60;99.90;;;;;;5074140;28;20223;-70
2021/12/20 07:50:04;;;;;;;28.83;17.13;;;5.60;99.90;;;;;;5074225;28;20298;-69
2021/12/20 07:52:32;;;;;;;25.70;16.65;;;5.50;99.90;;;;;;5074387;28;20670;-70
2021/12/20 07:54:59;;;;;;;25.10;15.50;;;5.40;99.90;;;;;;5074396;28;20226;-69
2021/12/20 07:57:26;;;;;;;31.10;18.30;;;5.40;99.90;;;;;;5074526;28;20657;-69
2021/12/20 07:59:54;;;;;;;25.85;16.50;;;5.40;99.90;;;;;;5074168;28;20210;-70
2021/12/20 08:02:22;;;;;;;28.75;16.45;;;5.40;99.90;;;;;;5074282;28;20199;-69
2021/12/20 08:04:51;;;;;;;25.92;15.20;;;5.50;99.90;;;;;;5074057;28;20219;-69
2021/12/20 08:07:21;;;;;;;27.30;16.00;;;5.60;99.90;;;;;;5073847;28;20218;-70
2021/12/20 08:09:49;;;;;;;31.45;17.15;;;5.70;99.90;;;;;;5074481;28;20210;-69
2021/12/20 08:12:16;;;;;;;29.90;17.52;;;5.80;99.90;;;;;;5074419;28;20204;-70
2021/12/20 08:14:42;;;;;;;25.98;16.50;;;5.70;99.90;;;;;;5073494;28;20712;-69
2021/12/20 08:17:09;;;;;;;29.13;17.40;;;5.80;99.90;;;;;;5074422;28;20202;-70
2021/12/20 08:19:37;;;;;;;31.85;19.58;;;5.80;99.90;;;;;;5074164;28;20206;-70
2021/12/20 08:22:04;;;;;;;32.03;20.17;;;5.80;99.90;;;;;;5074210;28;20202;-70
2021/12/20 08:24:31;;;;;;;29.63;19.40;;;5.70;99.90;;;;;;5073420;28;20222;-69
2021/12/20 08:26:58;;;;;;;30.55;20.38;;;5.80;99.90;;;;;;5073796;28;20207;-69
2021/12/20 08:29:26;;;;;;;30.73;19.63;;;5.80;99.90;;;;;;5073355;28;20230;-70
2021/12/20 08:31:53;;;;;;;33.42;19.50;;;5.90;99.90;;;;;;5073954;28;20199;-70
2021/12/20 08:34:19;;;;;;;29.90;19.67;;;6.00;99.90;;;;;;5073497;28;20219;-70
2021/12/20 08:36:48;;;;;;;32.72;20.05;;;6.00;99.90;;;;;;5073968;28;20203;-70
2021/12/20 08:39:19;;;;;;;29.73;18.67;;;6.00;99.90;;;;;;5073761;28;20256;-70
2021/12/20 08:41:46;;;;;;;29.27;19.55;;;5.90;99.90;;;;;;5073714;28;20592;-69
2021/12/20 08:44:14;;;;;;;34.97;22.80;;;5.90;99.90;;;;;;5073836;28;20226;-69
2021/12/20 08:46:40;;;;;;;33.80;21.23;;;5.80;99.90;;;;;;5073671;28;20202;-69
2021/12/20 08:49:08;;;;;;;35.70;21.23;;;5.90;99.90;;;;;;5073825;28;20235;-69
2021/12/20 08:51:36;;;;;;;26.73;17.20;;;6.00;99.90;;;;;;5073752;28;20665;-70
2021/12/20 08:54:05;;;;;;;30.52;18.52;;;6.10;99.90;;;;;;5073395;28;20223;-70
2021/12/20 08:56:31;;;;;;;27.95;18.58;;;6.10;99.90;;;;;;5073474;28;20199;-69
2021/12/20 08:58:58;;;;;;;28.20;17.90;;;6.10;99.90;;;;;;5073517;28;20205;-70
2021/12/20 09:01:25;;;;;;;27.33;17.35;;;6.10;99.90;;;;;;5073705;28;20206;-70
2021/12/20 09:03:52;;;;;;;27.45;18.10;;;6.10;99.90;;;;;;5073726;28;20225;-70
2021/12/20 09:06:22;;;;;;;30.05;19.15;;;6.20;99.90;;;;;;5073264;28;20203;-69
2021/12/20 09:08:50;;;;;;;32.72;18.90;;;6.10;99.90;;;;;;5073364;28;20314;-69
2021/12/20 09:11:18;;;;;;;33.33;18.70;;;5.90;99.90;;;;;;5073525;28;20202;-69
2021/12/20 09:13:45;;;;;;;29.02;18.58;;;5.80;99.90;;;;;;5073108;28;20229;-69
2021/12/20 09:16:12;;;;;;;31.08;18.65;;;5.80;99.90;;;;;;5073499;28;20205;-69
2021/12/20 09:18:39;;;;;;;31.73;19.48;;;5.80;99.90;;;;;;5077497;28;20709;-69
2021/12/20 09:21:08;;;;;;;29.60;19.67;;;5.90;99.90;;;;;;5077177;28;20206;-69
2021/12/20 09:23:35;;;;;;;30.50;19.17;;;6.10;99.90;;;;;;5077079;28;20226;-69
2021/12/20 09:26:03;;;;;;;33.60;20.17;;;6.20;99.90;;;;;;5077139;28;20202;-69
2021/12/20 09:28:32;;;;;;;37.08;22.05;;;6.30;99.90;;;;;;5076951;28;20554;-70
2021/12/20 09:30:59;;;;;;;35.08;22.00;;;6.30;99.90;;;;;;5077443;28;20229;-69
2021/12/20 09:33:26;;;;;;;35.35;21.65;;;6.40;99.90;;;;;;5076842;28;20222;-69
2021/12/20 09:35:54;;;;;;;40.40;23.88;;;6.40;99.90;;;;;;5076826;28;20228;-69
2021/12/20 09:38:21;;;;;;;40.97;24.08;;;6.40;99.90;;;;;;5077072;28;20199;-69
2021/12/20 09:41:14;;;;;;;37.60;20.73;;;6.40;99.90;;;;;;5076838;28;20206;-69
2021/12/20 09:43:46;;;;;;;28.05;17.75;;;6.50;99.90;;;;;;5077153;28;20637;-69
2021/12/20 09:46:13;;;;;;;27.63;17.80;;;6.60;99.90;;;;;;5076542;28;20211;-70
2021/12/20 09:48:43;;;;;;;27.20;17.00;;;6.70;99.90;;;;;;5076332;28;20229;-70
2021/12/20 09:51:10;;;;;;;28.48;16.95;;;6.80;99.90;;;;;;5076736;28;20653;-69
2021/12/20 09:53:37;;;;;;;26.40;17.15;;;6.80;99.90;;;;;;5076656;28;20229;-69
2021/12/20 09:56:05;;;;;;;27.17;17.83;;;6.80;99.90;;;;;;5076508;28;20229;-69
2021/12/20 09:58:36;;;;;;;28.02;17.30;;;6.90;99.90;;;;;;5076937;28;20199;-69
2021/12/20 10:01:06;;;;;;;26.75;18.27;;;7.00;99.90;;;;;;5076384;28;20199;-69
2021/12/20 10:03:33;;;;;;;32.55;18.60;;;7.00;99.90;;;;;;5076564;28;20576;-69
2021/12/20 10:06:00;;;;;;;27.02;18.27;;;7.00;99.90;;;;;;5076209;28;20206;-69
2021/12/20 10:08:32;;;;;;;29.77;18.08;;;7.10;99.90;;;;;;5076483;28;20222;-69
2021/12/20 10:11:01;;;;;;;30.20;19.48;;;7.20;99.90;;;;;;5076754;28;20257;-70
2021/12/20 10:13:30;;;;;;;30.38;19.17;;;7.20;99.90;;;;;;5076137;28;20254;-69
2021/12/20 10:15:58;;;;;;;27.88;19.25;;;7.20;99.90;;;;;;5075832;28;20207;-69
2021/12/20 10:18:28;;;;;;;28.58;17.90;;;7.40;99.90;;;;;;5076074;28;20206;-70
2021/12/20 10:20:56;;;;;;;28.90;18.30;;;7.50;99.90;;;;;;5076015;28;20205;-70
2021/12/20 10:23:25;;;;;;;29.70;18.95;;;7.50;99.90;;;;;;5076367;28;20226;-70
2021/12/20 10:25:53;;;;;;;28.25;18.40;;;7.60;99.90;;;;;;5075662;28;20209;-69
2021/12/20 10:28:23;;;;;;;32.33;18.67;;;7.80;99.90;;;;;;5075313;28;20684;-70
2021/12/20 10:30:52;;;;;;;27.73;17.30;;;7.80;99.90;;;;;;5076198;28;20234;-69
2021/12/20 10:33:21;;;;;;;25.63;16.67;;;7.70;99.90;;;;;;5076138;28;20226;-69
2021/12/20 10:35:52;;;;;;;27.27;17.60;;;7.60;99.90;;;;;;5075923;28;20199;-70
2021/12/20 10:38:37;;;;;;;33.15;18.92;;;7.40;99.90;;;;;;5075875;28;20206;-70
2021/12/20 10:41:06;;;;;;;27.35;18.50;;;7.20;99.90;;;;;;5075995;28;20202;-70
2021/12/20 10:43:37;;;;;;;30.00;17.98;;;7.00;99.90;;;;;;5075603;28;20791;-69
2021/12/20 10:46:13;;;;;;;31.73;19.50;;;6.80;99.90;;;;;;5075334;28;20222;-69
2021/12/20 10:48:40;;;;;;;29.27;18.30;;;6.60;99.90;;;;;;5075493;28;20707;-69
2021/12/20 10:51:17;;;;;;;30.33;19.20;;;6.40;99.90;;;;;;5075490;28;20653;-69
2021/12/20 10:53:46;;;;;;;28.85;19.10;;;6.20;99.90;;;;;;5075708;28;20232;-69
2021/12/20 10:56:13;;;;;;;25.50;17.10;;;6.10;99.90;;;;;;5075506;28;20649;-69
2021/12/20 10:58:41;;;;;;;27.00;16.63;;;6.00;99.90;;;;;;5075816;28;20298;-69
2021/12/20 11:01:19;;;;;;;27.50;15.18;;;6.10;99.90;;;;;;5075357;28;20214;-69
2021/12/20 11:03:57;;;;;;;23.33;14.55;;;6.30;99.90;;;;;;5075176;28;20314;-69
2021/12/20 11:06:37;;;;;;;25.35;16.40;;;6.50;99.90;;;;;;5075242;28;20206;-69
2021/12/20 11:09:15;;;;;;;27.48;16.80;;;6.70;99.90;;;;;;5075353;28;20313;-69
2021/12/20 11:11:49;;;;;;;30.58;18.23;;;6.70;99.90;;;;;;5075256;28;20199;-69
2021/12/20 11:14:18;;;;;;;24.50;17.30;;;6.50;99.90;;;;;;5075412;28;20254;-69
2021/12/20 11:16:46;;;;;;;24.50;14.32;;;6.60;99.90;;;;;;5075160;28;20209;-69
2021/12/20 11:19:22;;;;;;;23.33;14.30;;;6.50;99.90;;;;;;5075364;28;20205;-70
2021/12/20 11:21:57;;;;;;;19.98;12.65;;;6.50;99.90;;;;;;5075409;28;20206;-69
2021/12/20 11:24:27;;;;;;;18.55;12.35;;;6.50;99.90;;;;;;5074902;28;20261;-70
2021/12/20 11:26:55;;;;;;;17.67;11.50;;;6.60;99.90;;;;;;5075035;28;20214;-69
2021/12/20 11:29:22;;;;;;;18.35;11.82;;;6.80;99.90;;;;;;5074996;28;20233;-69
2021/12/20 11:31:50;;;;;;;17.40;11.77;;;6.90;99.90;;;;;;5075112;28;20297;-69
2021/12/20 11:34:17;;;;;;;17.13;11.13;;;7.00;99.90;;;;;;5074760;28;20309;-69
2021/12/20 11:36:44;;;;;;;18.27;12.00;;;7.20;99.90;;;;;;5074525;28;20206;-70
2021/12/20 11:39:13;;;;;;;17.65;11.50;;;7.30;99.90;;;;;;5074058;28;20669;-69
2021/12/20 11:41:40;;;;;;;19.15;10.70;;;7.40;99.90;;;;;;5073937;28;20206;-69
2021/12/20 11:44:12;;;;;;;18.77;11.35;;;7.50;99.90;;;;;;5074294;28;20712;-69
2021/12/20 11:46:47;;;;;;;16.67;11.13;;;7.50;99.90;;;;;;5074759;28;20227;-69
2021/12/20 11:49:21;;;;;;;14.85;11.18;;;7.70;99.90;;;;;;5074203;28;20686;-69
2021/12/20 11:52:03;;;;;;;16.52;10.40;;;7.70;99.90;;;;;;5074634;28;20210;-69
2021/12/20 11:54:44;;;;;;;12.57;8.30;;;7.70;99.90;;;;;;5074466;28;20226;-69
2021/12/20 11:57:39;;;;;;;14.80;8.63;;;7.70;99.90;;;;;;5074676;28;20582;-69
2021/12/20 12:00:21;;;;;;;13.57;8.73;;;7.50;99.90;;;;;;5074434;28;20217;-69
2021/12/20 12:02:49;;;;;;;20.35;14.07;;;7.50;99.90;;;;;;5074556;28;20286;-69
2021/12/20 12:05:18;;;;;;;20.33;13.27;;;7.30;99.90;;;;;;5074253;28;20223;-69
2021/12/20 12:07:47;;;;;;;21.95;13.88;;;7.10;99.90;;;;;;5073956;28;20206;-69
2021/12/20 12:10:16;;;;;;;19.70;12.70;;;7.00;99.90;;;;;;5073744;28;20304;-69
2021/12/20 12:12:46;;;;;;;24.98;13.80;;;7.00;99.90;;;;;;5074226;28;20294;-69
2021/12/20 12:15:17;;;;;;;20.30;13.38;;;7.00;99.90;;;;;;5073408;28;20322;-69
2021/12/20 12:17:56;;;;;;;19.08;12.18;;;7.00;99.90;;;;;;5074329;28;20225;-69
2021/12/20 12:20:47;;;;;;;19.08;12.70;;;7.10;99.90;;;;;;5073703;28;20286;-69
2021/12/20 12:23:17;;;;;;;17.73;11.93;;;7.10;99.90;;;;;;5073906;28;20667;-69
2021/12/20 12:25:49;;;;;;;18.98;12.20;;;6.90;99.90;;;;;;5073742;28;20207;-69
2021/12/20 12:28:17;;;;;;;26.45;13.10;;;7.00;99.90;;;;;;5074267;28;20202;-69
2021/12/20 12:30:56;;;;;;;18.35;13.02;;;7.00;99.90;;;;;;5073762;28;20202;-69
2021/12/20 12:33:35;;;;;;;20.88;11.10;;;7.10;99.90;;;;;;5073706;28;20699;-69
2021/12/20 12:36:24;;;;;;;19.40;11.32;;;7.20;99.90;;;;;;5073891;28;20206;-69
2021/12/20 12:38:55;;;;;;;24.50;11.85;;;7.20;99.90;;;;;;5073990;28;20238;-69
2021/12/20 12:41:25;;;;;;;19.27;11.05;;;7.30;99.90;;;;;;5073528;28;20203;-69
2021/12/20 12:44:02;;;;;;;20.02;12.15;;;7.40;99.90;;;;;;5073895;28;20230;-69
2021/12/20 12:46:47;;;;;;;20.02;12.88;;;7.40;99.90;;;;;;5073777;28;20557;-69
2021/12/20 12:49:44;;;;;;;17.02;11.23;;;7.40;99.90;;;;;;5073928;28;20309;-69
2021/12/20 12:52:34;;;;;;;19.38;13.15;;;7.50;99.90;;;;;;5073526;28;20209;-69
2021/12/20 12:55:03;;;;;;;19.08;11.80;;;7.50;99.90;;;;;;5073340;28;20229;-69
2021/12/20 12:57:34;;;;;;;18.58;12.85;;;7.30;99.90;;;;;;5073809;28;20206;-69
2021/12/20 13:00:22;;;;;;;18.55;11.75;;;7.10;99.90;;;;;;5073430;28;20199;-69